sensor_id;sensor_type;location;lat;lon;timestamp;temperature;humidity
11666;DHT22;5889;51.350;6.708;2023-05-10T00:01:35;14.50;99.90
11666;DHT22;5889;51.350;6.708;2023-05-10T00:04:02;14.50;99.90
11666;DHT22;5889;51.350;6.708;2023-05-10T00:06:31;14.40;99.90
11666;DHT22;5889;51.350;6.708;2023-05-10T04:20:31;14.10;99.90
11666;DHT22;5889;51.350;6.708;2023-05-10T04:22:58;14.10;99.90
11666;DHT22;5889;51.350;6.708;2023-05-10T04:25:25;14.10;99.90
11666;DHT22;5889;51.350;6.708;2023-05-10T04:27:51;14.10;99.90
11666;DHT22;5889;51.350;6.708;2023-05-10T04:30:18;14.20;99.90
11666;DHT22;5889;51.350;6.708;2023-05-10T04:32:45;14.20;99.90
11666;DHT22;5889;51.350;6.708;2023-05-10T04:35:12;14.20;99.90
11666;DHT22;5889;51.350;6.708;2023-05-10T04:37:41;14.20;99.90
11666;DHT22;5889;51.350;6.708;2023-05-10T04:40:09;14.20;99.90
11666;DHT22;5889;51.350;6.708;2023-05-10T04:42:36;14.20;99.90
11666;DHT22;5889;51.350;6.708;2023-05-10T04:45:03;14.10;99.90
11666;DHT22;5889;51.350;6.708;2023-05-10T05:40:50;14.20;99.90
11666;DHT22;5889;51.350;6.708;2023-05-10T05:43:17;14.30;99.90
11666;DHT22;5889;51.350;6.708;2023-05-10T05:45:44;14.30;99.90
11666;DHT22;5889;51.350;6.708;2023-05-10T05:48:11;14.30;99.90
11666;DHT22;5889;51.350;6.708;2023-05-10T06:21:17;14.30;99.90
11666;DHT22;5889;51.350;6.708;2023-05-10T06:23:44;14.30;99.90
11666;DHT22;5889;51.350;6.708;2023-05-10T06:26:11;14.30;99.90
11666;DHT22;5889;51.350;6.708;2023-05-10T06:28:39;14.40;99.90
11666;DHT22;5889;51.350;6.708;2023-05-10T06:31:06;14.40;99.90
11666;DHT22;5889;51.350;6.708;2023-05-10T06:33:33;14.40;99.90
11666;DHT22;5889;51.350;6.708;2023-05-10T06:36:00;14.40;99.90
11666;DHT22;5889;51.350;6.708;2023-05-10T06:38:29;14.40;99.90
11666;DHT22;5889;51.350;6.708;2023-05-10T06:40:56;14.50;99.90
11666;DHT22;5889;51.350;6.708;2023-05-10T06:43:23;14.50;99.90
11666;DHT22;5889;51.350;6.708;2023-05-10T06:45:50;14.60;99.90
11666;DHT22;5889;51.350;6.708;2023-05-10T06:48:17;14.60;99.90
11666;DHT22;5889;51.350;6.708;2023-05-10T06:50:44;14.60;99.90
11666;DHT22;5889;51.350;6.708;2023-05-10T06:53:11;14.70;99.90
11666;DHT22;5889;51.350;6.708;2023-05-10T06:55:40;14.70;99.90
11666;DHT22;5889;51.350;6.708;2023-05-10T06:58:07;14.70;99.90
11666;DHT22;5889;51.350;6.708;2023-05-10T07:00:34;14.70;99.90
11666;DHT22;5889;51.350;6.708;2023-05-10T07:03:04;14.70;99.90
11666;DHT22;5889;51.350;6.708;2023-05-10T07:05:31;14.70;99.90
11666;DHT22;5889;51.350;6.708;2023-05-10T07:07:58;14.70;99.90
11666;DHT22;5889;51.350;6.708;2023-05-10T07:10:25;14.80;99.90
11666;DHT22;5889;51.350;6.708;2023-05-10T07:12:53;14.80;99.90
11666;DHT22;5889;51.350;6.708;2023-05-10T07:15:21;14.70;99.90
11666;DHT22;5889;51.350;6.708;2023-05-10T07:17:50;14.70;99.90
11666;DHT22;5889;51.350;6.708;2023-05-10T07:20:17;14.70;99.90
11666;DHT22;5889;51.350;6.708;2023-05-10T07:22:45;14.70;99.90
11666;DHT22;5889;51.350;6.708;2023-05-10T07:25:14;14.90;99.90
11666;DHT22;5889;51.350;6.708;2023-05-10T07:27:43;14.90;99.90
11666;DHT22;5889;51.350;6.708;2023-05-10T07:30:13;15.00;99.90
11666;DHT22;5889;51.350;6.708;2023-05-10T07:32:40;15.10;99.90
11666;DHT22;5889;51.350;6.708;2023-05-10T07:35:08;15.30;99.90
11666;DHT22;5889;51.350;6.708;2023-05-10T07:37:35;15.30;99.90
11666;DHT22;5889;51.350;6.708;2023-05-10T07:40:02;15.30;99.90
11666;DHT22;5889;51.350;6.708;2023-05-10T07:42:29;15.30;99.90
11666;DHT22;5889;51.350;6.708;2023-05-10T07:44:56;15.50;99.90
11666;DHT22;5889;51.350;6.708;2023-05-10T07:47:25;15.60;99.90
11666;DHT22;5889;51.350;6.708;2023-05-10T07:49:52;15.70;99.90
11666;DHT22;5889;51.350;6.708;2023-05-10T08:03:09;15.90;99.90
11666;DHT22;5889;51.350;6.708;2023-05-10T08:05:35;15.90;99.90
11666;DHT22;5889;51.350;6.708;2023-05-10T08:08:02;16.00;99.90
11666;DHT22;5889;51.350;6.708;2023-05-10T08:10:30;16.00;99.90
11666;DHT22;5889;51.350;6.708;2023-05-10T08:12:56;16.10;99.90
11666;DHT22;5889;51.350;6.708;2023-05-10T08:15:24;16.10;99.90
11666;DHT22;5889;51.350;6.708;2023-05-10T08:17:55;16.10;99.90
11666;DHT22;5889;51.350;6.708;2023-05-10T08:20:31;16.20;99.90
11666;DHT22;5889;51.350;6.708;2023-05-10T08:23:01;16.20;99.90
11666;DHT22;5889;51.350;6.708;2023-05-10T08:25:29;16.20;99.90
11666;DHT22;5889;51.350;6.708;2023-05-10T08:27:56;16.20;99.90
11666;DHT22;5889;51.350;6.708;2023-05-10T08:30:22;16.30;99.90
11666;DHT22;5889;51.350;6.708;2023-05-10T08:32:49;16.30;99.90
11666;DHT22;5889;51.350;6.708;2023-05-10T08:35:16;16.10;99.90
11666;DHT22;5889;51.350;6.708;2023-05-10T08:37:45;15.90;99.90
11666;DHT22;5889;51.350;6.708;2023-05-10T08:40:12;15.90;99.90
11666;DHT22;5889;51.350;6.708;2023-05-10T08:42:40;15.80;99.90
11666;DHT22;5889;51.350;6.708;2023-05-10T08:45:10;15.80;99.90
11666;DHT22;5889;51.350;6.708;2023-05-10T08:47:37;15.80;99.90
11666;DHT22;5889;51.350;6.708;2023-05-10T08:50:06;15.80;99.90
11666;DHT22;5889;51.350;6.708;2023-05-10T08:52:38;15.90;99.90
11666;DHT22;5889;51.350;6.708;2023-05-10T08:55:07;15.90;99.90
11666;DHT22;5889;51.350;6.708;2023-05-10T08:57:35;15.90;99.90
11666;DHT22;5889;51.350;6.708;2023-05-10T09:00:03;16.00;99.90
11666;DHT22;5889;51.350;6.708;2023-05-10T09:02:31;16.10;99.90
11666;DHT22;5889;51.350;6.708;2023-05-10T09:04:58;16.20;99.90
11666;DHT22;5889;51.350;6.708;2023-05-10T09:07:25;16.30;99.90
11666;DHT22;5889;51.350;6.708;2023-05-10T09:09:52;16.30;99.90
11666;DHT22;5889;51.350;6.708;2023-05-10T09:12:20;16.30;99.90
11666;DHT22;5889;51.350;6.708;2023-05-10T09:14:47;16.30;99.90
11666;DHT22;5889;51.350;6.708;2023-05-10T09:17:14;16.40;99.90
11666;DHT22;5889;51.350;6.708;2023-05-10T09:19:41;16.40;99.90
11666;DHT22;5889;51.350;6.708;2023-05-10T09:22:08;16.40;99.90
11666;DHT22;5889;51.350;6.708;2023-05-10T09:24:36;16.50;99.90
11666;DHT22;5889;51.350;6.708;2023-05-10T09:27:07;16.60;99.90
11666;DHT22;5889;51.350;6.708;2023-05-10T09:29:43;16.60;99.90
11666;DHT22;5889;51.350;6.708;2023-05-10T09:32:10;16.60;99.90
11666;DHT22;5889;51.350;6.708;2023-05-10T09:34:37;16.50;99.90
11666;DHT22;5889;51.350;6.708;2023-05-10T09:37:05;16.50;99.90
11666;DHT22;5889;51.350;6.708;2023-05-10T09:39:34;16.50;99.90
11666;DHT22;5889;51.350;6.708;2023-05-10T09:42:03;16.40;99.90
11666;DHT22;5889;51.350;6.708;2023-05-10T09:44:31;16.50;99.90
11666;DHT22;5889;51.350;6.708;2023-05-10T09:46:59;16.50;99.90
11666;DHT22;5889;51.350;6.708;2023-05-10T09:49:26;16.60;99.90
11666;DHT22;5889;51.350;6.708;2023-05-10T09:52:03;16.70;99.90
11666;DHT22;5889;51.350;6.708;2023-05-10T09:54:30;16.70;99.90
11666;DHT22;5889;51.350;6.708;2023-05-10T09:56:57;16.60;99.90
11666;DHT22;5889;51.350;6.708;2023-05-10T09:59:25;16.50;99.90
11666;DHT22;5889;51.350;6.708;2023-05-10T10:01:53;16.40;99.90
11666;DHT22;5889;51.350;6.708;2023-05-10T10:43:24;16.00;99.90
11666;DHT22;5889;51.350;6.708;2023-05-10T10:46:13;16.10;99.90
11666;DHT22;5889;51.350;6.708;2023-05-10T10:48:43;16.10;99.90
11666;DHT22;5889;51.350;6.708;2023-05-10T10:51:14;15.90;99.90
11666;DHT22;5889;51.350;6.708;2023-05-10T10:53:41;15.90;99.90
11666;DHT22;5889;51.350;6.708;2023-05-10T10:56:09;15.90;99.90
11666;DHT22;5889;51.350;6.708;2023-05-10T11:34:35;16.50;99.90
11666;DHT22;5889;51.350;6.708;2023-05-10T11:37:03;16.50;99.90
11666;DHT22;5889;51.350;6.708;2023-05-10T11:39:31;16.40;99.90
11666;DHT22;5889;51.350;6.708;2023-05-10T11:41:59;16.40;99.90
11666;DHT22;5889;51.350;6.708;2023-05-10T12:13:23;16.60;99.90
11666;DHT22;5889;51.350;6.708;2023-05-10T12:15:50;16.80;99.90
11666;DHT22;5889;51.350;6.708;2023-05-10T12:18:22;16.90;99.90
11666;DHT22;5889;51.350;6.708;2023-05-10T12:33:49;17.50;99.90
11666;DHT22;5889;51.350;6.708;2023-05-10T12:36:16;17.80;99.90
11666;DHT22;5889;51.350;6.708;2023-05-10T12:38:44;18.00;99.90
11666;DHT22;5889;51.350;6.708;2023-05-10T12:41:14;18.40;99.90
11666;DHT22;5889;51.350;6.708;2023-05-10T12:43:41;18.70;99.90
11666;DHT22;5889;51.350;6.708;2023-05-10T12:46:08;18.90;99.90
11666;DHT22;5889;51.350;6.708;2023-05-10T12:48:36;19.00;99.90
11666;DHT22;5889;51.350;6.708;2023-05-10T12:51:04;18.90;99.90
11666;DHT22;5889;51.350;6.708;2023-05-10T12:53:34;19.10;99.90
11666;DHT22;5889;51.350;6.708;2023-05-10T12:56:01;19.30;99.90
11666;DHT22;5889;51.350;6.708;2023-05-10T12:58:28;19.50;99.90
11666;DHT22;5889;51.350;6.708;2023-05-10T13:00:55;19.40;99.90
11666;DHT22;5889;51.350;6.708;2023-05-10T13:03:22;19.50;99.90
11666;DHT22;5889;51.350;6.708;2023-05-10T13:05:49;19.70;99.90
11666;DHT22;5889;51.350;6.708;2023-05-10T13:08:17;19.70;99.90
11666;DHT22;5889;51.350;6.708;2023-05-10T13:10:44;19.70;99.90
11666;DHT22;5889;51.350;6.708;2023-05-10T13:13:10;19.80;99.90
11666;DHT22;5889;51.350;6.708;2023-05-10T13:15:37;20.00;99.90
11666;DHT22;5889;51.350;6.708;2023-05-10T13:18:04;20.10;99.90
11666;DHT22;5889;51.350;6.708;2023-05-10T13:20:31;20.10;99.90
11666;DHT22;5889;51.350;6.708;2023-05-10T13:22:57;20.20;99.90
11666;DHT22;5889;51.350;6.708;2023-05-10T13:25:26;20.30;99.90
11666;DHT22;5889;51.350;6.708;2023-05-10T13:27:52;20.30;99.90
11666;DHT22;5889;51.350;6.708;2023-05-10T13:30:19;20.30;99.90
11666;DHT22;5889;51.350;6.708;2023-05-10T13:32:46;20.40;99.90
11666;DHT22;5889;51.350;6.708;2023-05-10T13:35:13;20.40;99.90
11666;DHT22;5889;51.350;6.708;2023-05-10T13:37:39;20.30;99.90
11666;DHT22;5889;51.350;6.708;2023-05-10T13:40:07;20.40;99.90
11666;DHT22;5889;51.350;6.708;2023-05-10T13:42:35;20.40;99.90
11666;DHT22;5889;51.350;6.708;2023-05-10T13:45:03;20.20;99.90
11666;DHT22;5889;51.350;6.708;2023-05-10T13:47:30;20.30;99.90
11666;DHT22;5889;51.350;6.708;2023-05-10T13:49:57;20.30;99.90
11666;DHT22;5889;51.350;6.708;2023-05-10T13:52:24;20.30;99.90
11666;DHT22;5889;51.350;6.708;2023-05-10T13:54:50;20.50;99.90
11666;DHT22;5889;51.350;6.708;2023-05-10T13:57:20;20.70;99.90
11666;DHT22;5889;51.350;6.708;2023-05-10T13:59:48;20.70;99.90
11666;DHT22;5889;51.350;6.708;2023-05-10T14:02:15;20.60;99.90
11666;DHT22;5889;51.350;6.708;2023-05-10T14:04:41;20.50;99.90
11666;DHT22;5889;51.350;6.708;2023-05-10T14:07:08;20.30;99.90
11666;DHT22;5889;51.350;6.708;2023-05-10T14:09:35;20.30;99.90
11666;DHT22;5889;51.350;6.708;2023-05-10T14:12:02;20.40;99.90
11666;DHT22;5889;51.350;6.708;2023-05-10T14:14:29;20.40;99.90
11666;DHT22;5889;51.350;6.708;2023-05-10T14:16:57;20.40;99.90
11666;DHT22;5889;51.350;6.708;2023-05-10T14:19:24;20.40;99.90
11666;DHT22;5889;51.350;6.708;2023-05-10T14:21:52;20.40;99.90
11666;DHT22;5889;51.350;6.708;2023-05-10T14:24:18;20.40;99.90
11666;DHT22;5889;51.350;6.708;2023-05-10T14:26:45;20.50;99.90
11666;DHT22;5889;51.350;6.708;2023-05-10T14:29:12;20.70;99.90
11666;DHT22;5889;51.350;6.708;2023-05-10T14:31:39;20.80;99.90
11666;DHT22;5889;51.350;6.708;2023-05-10T14:34:07;20.70;99.90
11666;DHT22;5889;51.350;6.708;2023-05-10T14:36:34;20.50;99.90
11666;DHT22;5889;51.350;6.708;2023-05-10T14:39:01;20.50;99.90
11666;DHT22;5889;51.350;6.708;2023-05-10T14:41:28;20.40;99.90
11666;DHT22;5889;51.350;6.708;2023-05-10T14:43:55;20.50;99.90
11666;DHT22;5889;51.350;6.708;2023-05-10T14:46:22;20.50;99.90
11666;DHT22;5889;51.350;6.708;2023-05-10T14:48:49;20.40;99.90
11666;DHT22;5889;51.350;6.708;2023-05-10T14:51:17;20.50;99.90
11666;DHT22;5889;51.350;6.708;2023-05-10T14:53:47;20.50;99.90
11666;DHT22;5889;51.350;6.708;2023-05-10T14:56:13;20.50;99.90
11666;DHT22;5889;51.350;6.708;2023-05-10T14:58:40;20.30;99.90
11666;DHT22;5889;51.350;6.708;2023-05-10T15:01:07;20.20;99.90
11666;DHT22;5889;51.350;6.708;2023-05-10T15:03:33;20.20;99.90
11666;DHT22;5889;51.350;6.708;2023-05-10T15:06:00;20.30;99.90
11666;DHT22;5889;51.350;6.708;2023-05-10T15:08:28;20.40;99.90
11666;DHT22;5889;51.350;6.708;2023-05-10T15:10:55;20.60;99.90
11666;DHT22;5889;51.350;6.708;2023-05-10T15:13:22;20.90;99.90
11666;DHT22;5889;51.350;6.708;2023-05-10T15:15:49;21.00;99.90
11666;DHT22;5889;51.350;6.708;2023-05-10T15:18:15;20.80;99.90
11666;DHT22;5889;51.350;6.708;2023-05-10T15:20:42;20.60;99.90
11666;DHT22;5889;51.350;6.708;2023-05-10T15:23:09;20.10;99.90
11666;DHT22;5889;51.350;6.708;2023-05-10T15:25:37;19.70;99.90
11666;DHT22;5889;51.350;6.708;2023-05-10T15:28:04;19.20;99.90
11666;DHT22;5889;51.350;6.708;2023-05-10T16:30:12;14.10;99.90
11666;DHT22;5889;51.350;6.708;2023-05-10T16:32:39;14.10;99.90
11666;DHT22;5889;51.350;6.708;2023-05-10T16:35:07;14.10;99.90
11666;DHT22;5889;51.350;6.708;2023-05-10T16:43:07;14.20;99.90
11666;DHT22;5889;51.350;6.708;2023-05-10T16:45:36;14.10;99.90
11666;DHT22;5889;51.350;6.708;2023-05-10T16:48:03;14.20;99.90
11666;DHT22;5889;51.350;6.708;2023-05-10T16:50:30;14.20;99.90
11666;DHT22;5889;51.350;6.708;2023-05-10T16:52:57;14.20;99.90
11666;DHT22;5889;51.350;6.708;2023-05-10T16:55:24;14.30;99.90
11666;DHT22;5889;51.350;6.708;2023-05-10T16:57:51;14.30;99.90
11666;DHT22;5889;51.350;6.708;2023-05-10T17:00:24;14.20;99.90
11666;DHT22;5889;51.350;6.708;2023-05-10T17:02:52;14.20;99.90
11666;DHT22;5889;51.350;6.708;2023-05-10T17:05:18;14.20;99.90
11666;DHT22;5889;51.350;6.708;2023-05-10T17:07:45;14.20;99.90
11666;DHT22;5889;51.350;6.708;2023-05-10T17:10:12;14.20;99.90
11666;DHT22;5889;51.350;6.708;2023-05-10T17:12:39;14.10;99.90
11666;DHT22;5889;51.350;6.708;2023-05-10T17:15:07;14.10;99.90
11666;DHT22;5889;51.350;6.708;2023-05-10T17:17:34;14.10;99.90
11666;DHT22;5889;51.350;6.708;2023-05-10T17:20:02;14.00;99.90
11666;DHT22;5889;51.350;6.708;2023-05-10T17:22:29;14.00;99.90
11666;DHT22;5889;51.350;6.708;2023-05-10T17:24:56;14.10;99.90
11666;DHT22;5889;51.350;6.708;2023-05-10T17:27:22;14.00;99.90
11666;DHT22;5889;51.350;6.708;2023-05-10T17:29:53;14.10;99.90
11666;DHT22;5889;51.350;6.708;2023-05-10T17:32:20;14.10;99.90
11666;DHT22;5889;51.350;6.708;2023-05-10T17:34:47;14.10;99.90
11666;DHT22;5889;51.350;6.708;2023-05-10T17:37:15;14.10;99.90
11666;DHT22;5889;51.350;6.708;2023-05-10T17:39:43;14.10;99.90
11666;DHT22;5889;51.350;6.708;2023-05-10T17:42:10;14.00;99.90
11666;DHT22;5889;51.350;6.708;2023-05-10T17:44:39;14.00;99.90
11666;DHT22;5889;51.350;6.708;2023-05-10T17:47:06;14.10;99.90
11666;DHT22;5889;51.350;6.708;2023-05-10T17:49:33;14.10;99.90
11666;DHT22;5889;51.350;6.708;2023-05-10T17:52:00;14.10;99.90
11666;DHT22;5889;51.350;6.708;2023-05-10T17:54:28;14.10;99.90
11666;DHT22;5889;51.350;6.708;2023-05-10T17:56:55;14.20;99.90
11666;DHT22;5889;51.350;6.708;2023-05-10T17:59:22;14.20;99.90
11666;DHT22;5889;51.350;6.708;2023-05-10T18:01:49;14.30;99.90
11666;DHT22;5889;51.350;6.708;2023-05-10T18:04:15;14.30;99.90
11666;DHT22;5889;51.350;6.708;2023-05-10T18:06:42;14.40;99.90
11666;DHT22;5889;51.350;6.708;2023-05-10T18:09:09;14.50;99.90
11666;DHT22;5889;51.350;6.708;2023-05-10T18:11:37;14.70;99.90
11666;DHT22;5889;51.350;6.708;2023-05-10T18:14:04;14.80;99.90
11666;DHT22;5889;51.350;6.708;2023-05-10T18:16:31;14.90;99.90
11666;DHT22;5889;51.350;6.708;2023-05-10T18:18:59;15.00;99.90
11666;DHT22;5889;51.350;6.708;2023-05-10T18:21:25;15.10;99.90
11666;DHT22;5889;51.350;6.708;2023-05-10T18:23:52;15.10;99.90
11666;DHT22;5889;51.350;6.708;2023-05-10T18:26:25;15.20;99.90
11666;DHT22;5889;51.350;6.708;2023-05-10T18:29:12;15.30;99.90
11666;DHT22;5889;51.350;6.708;2023-05-10T18:31:44;15.40;99.90
11666;DHT22;5889;51.350;6.708;2023-05-10T18:34:18;15.40;99.90
11666;DHT22;5889;51.350;6.708;2023-05-10T18:40:45;15.50;99.90
11666;DHT22;5889;51.350;6.708;2023-05-10T18:43:31;15.40;99.90
11666;DHT22;5889;51.350;6.708;2023-05-10T18:50:04;15.30;99.90
11666;DHT22;5889;51.350;6.708;2023-05-10T18:52:45;15.20;99.90
11666;DHT22;5889;51.350;6.708;2023-05-10T18:59:08;15.20;99.90
11666;DHT22;5889;51.350;6.708;2023-05-10T19:02:01;15.20;99.90
11666;DHT22;5889;51.350;6.708;2023-05-10T19:08:16;15.20;99.90
11666;DHT22;5889;51.350;6.708;2023-05-10T19:11:28;15.20;99.90
11666;DHT22;5889;51.350;6.708;2023-05-10T19:14:03;15.20;99.90
11666;DHT22;5889;51.350;6.708;2023-05-10T19:16:33;15.20;99.90
11666;DHT22;5889;51.350;6.708;2023-05-10T19:19:01;15.30;99.90
11666;DHT22;5889;51.350;6.708;2023-05-10T19:21:28;15.30;99.90
11666;DHT22;5889;51.350;6.708;2023-05-10T19:23:57;15.20;99.90
11666;DHT22;5889;51.350;6.708;2023-05-10T19:26:25;15.20;99.90
11666;DHT22;5889;51.350;6.708;2023-05-10T19:28:53;15.10;99.90
11666;DHT22;5889;51.350;6.708;2023-05-10T19:31:21;15.10;99.90
11666;DHT22;5889;51.350;6.708;2023-05-10T19:33:48;15.20;99.90
11666;DHT22;5889;51.350;6.708;2023-05-10T19:36:18;15.20;99.90
11666;DHT22;5889;51.350;6.708;2023-05-10T19:38:45;15.20;99.90
11666;DHT22;5889;51.350;6.708;2023-05-10T19:41:14;15.20;99.90
11666;DHT22;5889;51.350;6.708;2023-05-10T19:43:41;15.20;99.90
11666;DHT22;5889;51.350;6.708;2023-05-10T19:46:08;15.20;99.90
11666;DHT22;5889;51.350;6.708;2023-05-10T19:48:38;15.20;99.90
11666;DHT22;5889;51.350;6.708;2023-05-10T19:51:05;15.20;99.90
11666;DHT22;5889;51.350;6.708;2023-05-10T19:53:32;15.10;99.90
11666;DHT22;5889;51.350;6.708;2023-05-10T19:56:03;15.10;99.90
11666;DHT22;5889;51.350;6.708;2023-05-10T19:58:32;15.10;99.90
11666;DHT22;5889;51.350;6.708;2023-05-10T20:00:59;15.00;99.90
11666;DHT22;5889;51.350;6.708;2023-05-10T20:03:26;15.00;99.90
11666;DHT22;5889;51.350;6.708;2023-05-10T20:05:53;15.10;99.90
11666;DHT22;5889;51.350;6.708;2023-05-10T20:08:19;15.00;99.90
11666;DHT22;5889;51.350;6.708;2023-05-10T20:10:46;15.10;99.90
11666;DHT22;5889;51.350;6.708;2023-05-10T20:13:13;15.10;99.90
11666;DHT22;5889;51.350;6.708;2023-05-10T20:15:41;15.10;99.90
11666;DHT22;5889;51.350;6.708;2023-05-10T20:18:10;15.10;99.90
11666;DHT22;5889;51.350;6.708;2023-05-10T20:20:38;15.00;99.90
11666;DHT22;5889;51.350;6.708;2023-05-10T20:23:04;15.00;99.90
11666;DHT22;5889;51.350;6.708;2023-05-10T20:25:31;14.90;99.90
11666;DHT22;5889;51.350;6.708;2023-05-10T20:27:58;14.90;99.90
11666;DHT22;5889;51.350;6.708;2023-05-10T20:30:25;14.90;99.90
11666;DHT22;5889;51.350;6.708;2023-05-10T20:32:53;14.80;99.90
11666;DHT22;5889;51.350;6.708;2023-05-10T20:35:20;14.80;99.90
11666;DHT22;5889;51.350;6.708;2023-05-10T20:37:47;14.70;99.90
11666;DHT22;5889;51.350;6.708;2023-05-10T20:40:14;14.70;99.90
11666;DHT22;5889;51.350;6.708;2023-05-10T20:42:40;14.70;99.90
11666;DHT22;5889;51.350;6.708;2023-05-10T20:45:08;14.60;99.90
11666;DHT22;5889;51.350;6.708;2023-05-10T20:47:35;14.60;99.90
11666;DHT22;5889;51.350;6.708;2023-05-10T20:50:04;14.60;99.90
11666;DHT22;5889;51.350;6.708;2023-05-10T20:52:31;14.60;99.90
11666;DHT22;5889;51.350;6.708;2023-05-10T20:54:58;14.60;99.90
11666;DHT22;5889;51.350;6.708;2023-05-10T20:57:25;14.60;99.90
11666;DHT22;5889;51.350;6.708;2023-05-10T20:59:51;14.60;99.90
11666;DHT22;5889;51.350;6.708;2023-05-10T21:02:19;14.60;99.90
11666;DHT22;5889;51.350;6.708;2023-05-10T21:04:45;14.60;99.90
11666;DHT22;5889;51.350;6.708;2023-05-10T21:07:16;14.60;99.90
11666;DHT22;5889;51.350;6.708;2023-05-10T21:09:42;14.60;99.90
11666;DHT22;5889;51.350;6.708;2023-05-10T21:12:09;14.50;99.90
11666;DHT22;5889;51.350;6.708;2023-05-10T21:14:36;14.50;99.90
11666;DHT22;5889;51.350;6.708;2023-05-10T21:17:03;14.60;99.90
11666;DHT22;5889;51.350;6.708;2023-05-10T21:19:29;14.50;99.90
11666;DHT22;5889;51.350;6.708;2023-05-10T21:21:56;14.50;99.90
11666;DHT22;5889;51.350;6.708;2023-05-10T21:24:25;14.50;99.90
11666;DHT22;5889;51.350;6.708;2023-05-10T21:26:52;14.40;99.90
11666;DHT22;5889;51.350;6.708;2023-05-10T21:29:18;14.40;99.90
11666;DHT22;5889;51.350;6.708;2023-05-10T21:31:45;14.40;99.90
11666;DHT22;5889;51.350;6.708;2023-05-10T21:34:12;14.40;99.90
11666;DHT22;5889;51.350;6.708;2023-05-10T21:36:39;14.40;99.90
11666;DHT22;5889;51.350;6.708;2023-05-10T21:39:06;14.40;99.90
11666;DHT22;5889;51.350;6.708;2023-05-10T21:41:34;14.30;99.90
11666;DHT22;5889;51.350;6.708;2023-05-10T21:44:00;14.40;99.90
11666;DHT22;5889;51.350;6.708;2023-05-10T21:46:27;14.40;99.90
11666;DHT22;5889;51.350;6.708;2023-05-10T21:48:54;14.40;99.90
11666;DHT22;5889;51.350;6.708;2023-05-10T21:51:21;14.40;99.90
11666;DHT22;5889;51.350;6.708;2023-05-10T21:53:48;14.30;99.90
11666;DHT22;5889;51.350;6.708;2023-05-10T21:56:15;14.30;99.90
11666;DHT22;5889;51.350;6.708;2023-05-10T21:58:43;14.40;99.90
11666;DHT22;5889;51.350;6.708;2023-05-10T22:01:10;14.30;99.90
11666;DHT22;5889;51.350;6.708;2023-05-10T22:03:38;14.40;99.90
11666;DHT22;5889;51.350;6.708;2023-05-10T22:06:05;14.40;99.90
11666;DHT22;5889;51.350;6.708;2023-05-10T22:08:32;14.50;99.90
11666;DHT22;5889;51.350;6.708;2023-05-10T22:11:00;14.50;99.90
11666;DHT22;5889;51.350;6.708;2023-05-10T22:13:26;14.50;99.90
11666;DHT22;5889;51.350;6.708;2023-05-10T22:15:54;14.60;99.90
11666;DHT22;5889;51.350;6.708;2023-05-10T22:18:21;14.60;99.90
11666;DHT22;5889;51.350;6.708;2023-05-10T22:20:48;14.50;99.90
11666;DHT22;5889;51.350;6.708;2023-05-10T22:23:15;14.50;99.90
11666;DHT22;5889;51.350;6.708;2023-05-10T22:25:41;14.50;99.90
11666;DHT22;5889;51.350;6.708;2023-05-10T22:28:08;14.50;99.90
11666;DHT22;5889;51.350;6.708;2023-05-10T22:30:36;14.50;99.90
11666;DHT22;5889;51.350;6.708;2023-05-10T22:33:04;14.50;99.90
11666;DHT22;5889;51.350;6.708;2023-05-10T22:35:31;14.50;99.90
11666;DHT22;5889;51.350;6.708;2023-05-10T22:37:58;14.50;99.90
11666;DHT22;5889;51.350;6.708;2023-05-10T22:40:25;14.50;99.90
11666;DHT22;5889;51.350;6.708;2023-05-10T22:42:51;14.50;99.90
11666;DHT22;5889;51.350;6.708;2023-05-10T22:45:18;14.50;99.90
11666;DHT22;5889;51.350;6.708;2023-05-10T22:47:46;14.50;99.90
11666;DHT22;5889;51.350;6.708;2023-05-10T22:50:14;14.40;99.90
11666;DHT22;5889;51.350;6.708;2023-05-10T22:52:41;14.30;99.90
11666;DHT22;5889;51.350;6.708;2023-05-10T22:55:08;14.30;99.90
11666;DHT22;5889;51.350;6.708;2023-05-10T22:57:35;14.20;99.90
11666;DHT22;5889;51.350;6.708;2023-05-10T23:25:57;14.00;99.90
11666;DHT22;5889;51.350;6.708;2023-05-10T23:28:24;14.10;99.90
11666;DHT22;5889;51.350;6.708;2023-05-10T23:30:53;14.10;99.90
11666;DHT22;5889;51.350;6.708;2023-05-10T23:33:20;14.20;99.90
11666;DHT22;5889;51.350;6.708;2023-05-10T23:35:47;14.10;99.90
11666;DHT22;5889;51.350;6.708;2023-05-10T23:38:14;14.00;99.90
11666;DHT22;5889;51.350;6.708;2023-05-10T23:40:41;14.10;99.90
11666;DHT22;5889;51.350;6.708;2023-05-10T23:43:09;14.00;99.90
11666;DHT22;5889;51.350;6.708;2023-05-10T23:45:36;14.00;99.90
11666;DHT22;5889;51.350;6.708;2023-05-10T23:48:02;14.10;99.90
11666;DHT22;5889;51.350;6.708;2023-05-10T23:50:29;14.10;99.90
11666;DHT22;5889;51.350;6.708;2023-05-10T23:52:56;14.10;99.90
11666;DHT22;5889;51.350;6.708;2023-05-10T23:55:23;14.00;99.90
11666;DHT22;5889;51.350;6.708;2023-05-10T23:57:49;14.00;99.90
